This is the latest recevied weather packets stored in our database for station/object GW1561. If no packets are shown the sender has not sent any weather packets the latest 10 day(s).
| Time | Temp. | Humidity | Pressure | Rain* | Wind** | Luminosity | Snow |
|---|---|---|---|---|---|---|---|
| 1777920335 | 22.78° C | 48% | - | 0 mm | - | - | - |
| 1777917800 | 22.22° C | 50% | - | 0 mm | - | - | - |
| 1777917468 | 21.67° C | 52% | - | 0 mm | - | - | - |
| 1777915633 | 22.22° C | 54% | - | 0 mm | - | - | - |
| 1777913498 | 19.44° C | 59% | - | 0 mm | - | - | - |
| 1777911690 | 17.78° C | 63% | - | 0 mm | - | - | - |
| 1777911312 | 17.22° C | 64% | 982.3 hPa | 0 mm | - | - | - |
| 1777909155 | 15.56° C | 73% | 982.7 hPa | 0 mm | - | - | - |
| 1777908790 | 15° C | 70% | 982.7 hPa | 0 mm | - | - | - |
| 1777905223 | 15° C | 73% | 983.4 hPa | 0 mm | - | - | - |
| 1777903777 | 14.44° C | 71% | 983 hPa | 0 mm | - | - | - |
| 1777898370 | 8.89° C | 99% | 983 hPa | 0 mm | - | - | - |
| 1777894049 | 5° C | 99% | 983 hPa | 0 mm | - | - | - |
| 1777892250 | 5° C | 99% | 983 hPa | 0 mm | - | - | - |
| 1777891872 | 5° C | 99% | 983 hPa | 0 mm | - | - | - |
| 1777891514 | 5° C | 99% | 983 hPa | 0 mm | - | - | - |
| 1777888309 | 5.56° C | 99% | 983.4 hPa | 0 mm | - | - | - |
| 1777887571 | 5.56° C | 99% | 983.4 hPa | 0 mm | - | - | - |
| 1777886132 | 5.56° C | 99% | 983.4 hPa | 0 mm | - | - | - |
| 1777885758 | 5.56° C | 99% | 983.7 hPa | 0 mm | - | - | - |
| 1777882552 | 6.11° C | 98% | 983.7 hPa | 0 mm | - | - | - |
| 1777881454 | 6.67° C | 98% | 983.7 hPa | 0 mm | - | - | - |
| 1777878592 | 7.78° C | 97% | 984 hPa | 0 mm | - | - | - |
| 1777877513 | 7.78° C | 97% | 984 hPa | 0 mm | - | - | - |
| 1777877122 | 7.78° C | 97% | 984 hPa | 0 mm | - | - | - |
* Rain since midnight (hover to see other rain measurements)
** Current wind speed in m/s (hover to see current wind gust speed)